map of BRI home
BRI - Airport
Location
City:  Bari, Apulia, Italy
Name:Bari Karol Wojtyla International Airport
Old (Alt.):Palese Macchie
ICAO:LIBD
IATA:BRI

Details
Type:Airport (Aerodrome, Airfield)
Use:Public/Civil, International (customs port of entry)
Latitude:4108'20"N (41.138856)
Longitude:1645'38"E (16.760594)
Datum:WGS 1984
Elevation:177 ft (54 m)
Variation:4.00E (WMM2015v2 magnetic declination)
0.13 annual change
Runways:2
Longest:8005 × 148 ft (2440 × 45 m), paved

Time
Time Zone:UTC+1 (DST+2)
Local Time:

Weather
METAR:LIBD 041350Z 33004KT 7000 RA FEW010 SCT025 11/10 Q1016
TAF:LIBD 041100Z 0412/0512 01014KT 9000 SCT015 BKN030
TEMPO 0412/0416 4000 TSRA
TEMPO 0416/0420 SHRA

Related Locations
Nearby:
Farthest:CHT: 11741 mi / 18896 km
Waitangi [Tuuta], CIT, NZ

Find:

   beyond  
but within

Other Information
Maps:
NOTAMs:
Links:
Sources:

  
  • flag of Italy
  • flag of Apulia
  

Sectional Chart

Flight Planning
at skyvector.com

Satellite Image

Google Maps Satellite view

 

Copyright © 2004-2019 Karl L. Swartz. All rights reserved.
The Great Circle Mapper name and logo are trademarks of the Great Circle Mapper.
All other trademarks mentioned herein belong to their respective owners.
Please see credits for attibutions and further copyright information.

  Follow gcmap on Facebook Follow gcmap on Twitter GCmap on LinkedIn

hCard Microformat

Geo Microformat